• Join FlightAware (Why Join?)
  • Login
  • US Flag 
03:53AM EDT


 

Airport Tracker/Info


-or-


 

Live Flight TrackerFlight Track Log ✈ ASA125 ✈ 15-Sep-2013 ✈ KSEA - PAFA / FAI

Flight Track Log - Related Links

Times and Time Zones

All times are in EDT time to prevent confusion due to time zone crossing. See the ASA125 flight status page for this flight to view local times or setup timezone preferences in your user account.

Time Position Orientation Groundspeed Altitude Reporting Facility
EDT Latitude Longitude Course Direction KTS MPH feet Rate Location/Type
01:01AM 47.4306 -122.3097 178° South 175 201 1,600  Level Seattle Center
01:02AM 47.3922 -122.3078 178° South 198 228 3,400 2,460 Climbing Seattle Center
01:02AM 47.3550 -122.3100 182° South 212 244 5,000 1,560 Climbing Seattle Center
01:03AM 47.3089 -122.3781 225° Southwest 261 300 6,000 780 Climbing Seattle Center
01:04AM 47.3239 -122.4842 282° West 276 318 6,600 1,440 Climbing Seattle Center
01:05AM 47.3739 -122.5689 311° West 275 316 9,000 2,220 Climbing Seattle Center
01:06AM 47.4369 -122.6500 319° Northwest 305 351 11,100 2,340 Climbing Seattle Center
01:07AM 47.5161 -122.7497 320° Northwest 346 398 13,800 2,340 Climbing Seattle Center
01:08AM 47.5803 -122.8333 319° Northwest 367 422 15,900 2,220 Climbing Seattle Center
01:09AM 47.6575 -122.9433 316° Northwest 385 443 18,300 2,520 Climbing Seattle Center
01:10AM 47.7253 -123.1075 302° West 392 451 21,100 2,280 Climbing Seattle Center
01:11AM 47.7844 -123.2478 302° West 398 458 23,000 1,680 Climbing Seattle Center
01:12AM 47.8456 -123.3925 302° West 410 472 24,500 1,260 Climbing Seattle Center
01:13AM 47.9306 -123.5264 313° West 449 517 25,600 1,200 Climbing Seattle Center
01:14AM 48.0431 -123.6328 328° Northwest 473 544 27,000 1,680 Climbing Seattle Center
01:15AM 48.1556 -123.7436 327° Northwest 484 557 29,000 1,620 Climbing Seattle Center
01:16AM 48.2639 -123.8514 326° Northwest 476 548 30,300 1,140 Climbing Seattle Center
01:18AM 48.4833 -124.1000 323° Northwest 500 575 32,500 1,020 Climbing Vancouver Center
01:19AM 48.6000 -124.2000 330° Northwest 510 587 33,500 720 Climbing Vancouver Center
01:20AM 48.7333 -124.3333 327° Northwest 510 587 34,000 300 Climbing Vancouver Center
01:21AM 48.8500 -124.4667 323° Northwest 520 598 34,200 660 Climbing Vancouver Center
01:22AM 48.9667 -124.5833 327° Northwest 520 598 35,400 840 Climbing Vancouver Center
01:23AM 49.0833 -124.6833 331° Northwest 530 610 35,900 720 Climbing Vancouver Center
01:24AM 49.2167 -124.8167 327° Northwest 540 621 36,900 1,020 Climbing Vancouver Center
01:25AM 49.3333 -124.9500 323° Northwest 520 598 38,000 540 Climbing Vancouver Center
01:26AM 49.4500 -125.0833 323° Northwest 510 587 38,000  Level Vancouver Center
01:27AM 49.5833 -125.1833 334° Northwest 510 587 38,000  Level Vancouver Center
01:28AM 49.6833 -125.3167 319° Northwest 510 587 38,000  Level Vancouver Center
01:29AM 49.8167 -125.4500 327° Northwest 510 587 38,000  Level Vancouver Center
01:30AM 49.9333 -125.5667 327° Northwest 510 587 38,000  Level Vancouver Center
01:31AM 50.0333 -125.7000 319° Northwest 510 587 38,000  Level Vancouver Center
01:32AM 50.1500 -125.8333 324° Northwest 510 587 38,000  Level Vancouver Center
01:33AM 50.2667 -125.9333 331° Northwest 510 587 38,000  Level Vancouver Center
01:34AM 50.3833 -126.0833 321° Northwest 500 575 38,000  Level Vancouver Center
01:35AM 50.5000 -126.1833 331° Northwest 490 564 38,000  Level Vancouver Center
01:36AM 50.6167 -126.3167 324° Northwest 490 564 38,000  Level Vancouver Center
01:37AM 50.7333 -126.4333 328° Northwest 490 564 38,000  Level Vancouver Center
01:38AM 50.8333 -126.5667 320° Northwest 490 564 38,000  Level Vancouver Center
01:39AM 50.9333 -126.6833 324° Northwest 490 564 38,000  Level Vancouver Center
01:40AM 51.0500 -126.8333 321° Northwest 500 575 38,000  Level Vancouver Center
01:41AM 51.1667 -126.9333 332° Northwest 490 564 38,000  Level Vancouver Center
01:42AM 51.2833 -127.0833 321° Northwest 490 564 38,000  Level Vancouver Center
01:43AM 51.4000 -127.2000 328° Northwest 490 564 38,000  Level Vancouver Center
01:44AM 51.5000 -127.3333 320° Northwest 500 575 38,000  Level Vancouver Center
01:45AM 51.6167 -127.4500 328° Northwest 490 564 38,000  Level Vancouver Center
01:46AM 51.7333 -127.6000 321° Northwest 490 564 38,000  Level Vancouver Center
01:47AM 51.8333 -127.7167 324° Northwest 490 564 38,000  Level Vancouver Center
01:48AM 51.9333 -127.8667 317° Northwest 490 564 38,000  Level Vancouver Center
01:49AM 52.0500 -127.9833 328° Northwest 490 564 38,000  Level Vancouver Center
01:50AM 52.1667 -128.1333 322° Northwest 490 564 38,000  Level Vancouver Center
01:51AM 52.2833 -128.2500 329° Northwest 490 564 38,000  Level Vancouver Center
01:52AM 52.3833 -128.3667 325° Northwest 490 564 38,000  Level Vancouver Center
01:53AM 52.5000 -128.4833 329° Northwest 490 564 38,000  Level Vancouver Center
01:54AM 52.6167 -128.6167 325° Northwest 490 564 38,000  Level Vancouver Center
01:55AM 52.7333 -128.7333 329° Northwest 500 575 38,000  Level Vancouver Center
01:56AM 52.8333 -128.8500 325° Northwest 500 575 38,000  Level Vancouver Center
01:57AM 52.9500 -128.9833 325° Northwest 500 575 38,000  Level Vancouver Center
01:58AM 53.0833 -129.1000 332° Northwest 500 575 38,000  Level Vancouver Center
01:59AM 53.1833 -129.2667 315° West 500 575 38,000  Level Vancouver Center
02:00AM 53.3000 -129.3833 329° Northwest 490 564 38,000  Level Vancouver Center
02:01AM 53.4167 -129.5167 326° Northwest 500 575 38,000  Level Vancouver Center
02:02AM 53.5167 -129.6333 325° Northwest 500 575 38,000  Level Vancouver Center
02:03AM 53.6333 -129.7667 326° Northwest 490 564 38,000  Level Vancouver Center
02:04AM 53.7667 -129.9000 329° Northwest 490 564 38,000  Level Vancouver Center
02:05AM 53.8500 -130.0333 317° Northwest 490 564 38,000  Level Vancouver Center
02:06AM 53.9833 -130.1667 330° Northwest 490 564 38,000  Level Vancouver Center
02:07AM 54.1000 -130.2833 330° Northwest 490 564 38,000  Level Vancouver Center
02:08AM 54.2000 -130.4167 322° Northwest 500 575 38,000  Level Vancouver Center
02:09AM 54.3167 -130.5833 320° Northwest 500 575 38,000  Level Vancouver Center
02:10AM 54.4333 -130.7167 326° Northwest 500 575 38,000  Level Vancouver Center
02:11AM 54.5500 -130.8500 326° Northwest 510 587 38,000  Level Vancouver Center
02:12AM 54.6500 -130.9833 322° Northwest 510 587 38,000  Level Vancouver Center
02:13AM 54.7833 -131.1167 330° Northwest 510 587 38,000  Level Vancouver Center
02:14AM 54.8833 -131.2833 316° Northwest 510 587 38,000  Level Vancouver Center
02:15AM 55.0000 -131.4167 327° Northwest 510 587 38,000  Level Vancouver Center
02:16AM 55.1167 -131.5667 324° Northwest 510 587 38,000  Level Vancouver Center
02:17AM 55.2333 -131.7000 327° Northwest 510 587 38,000  Level Vancouver Center
02:18AM 55.3333 -131.8667 317° Northwest 510 587 38,000  Level Vancouver Center
02:19AM 55.4667 -132.0167 327° Northwest 510 587 38,000  Level Vancouver Center
02:20AM 55.5667 -132.1500 323° Northwest 500 575 38,000  Level Vancouver Center
02:21AM 55.7000 -132.3000 328° Northwest 500 575 38,000  Level Vancouver Center
02:22AM 55.8000 -132.4167 327° Northwest 500 575 38,000  Level Vancouver Center
02:23AM 55.9333 -132.5500 331° Northwest 500 575 38,000  Level Vancouver Center
02:24AM 56.0333 -132.7000 320° Northwest 500 575 38,000  Level Vancouver Center
02:25AM 56.1667 -132.8167 334° Northwest 510 587 38,000  Level Vancouver Center
02:26AM 56.2667 -132.9667 320° Northwest 510 587 38,000  Level Vancouver Center
02:27AM 56.4000 -133.1167 328° Northwest 510 587 38,000  Level Vancouver Center
02:28AM 56.5167 -133.2333 331° Northwest 510 587 38,000  Level Vancouver Center
02:29AM 56.6167 -133.3833 320° Northwest 500 575 38,000  Level Vancouver Center
02:30AM 56.7500 -133.5000 334° Northwest 500 575 38,000  Level Vancouver Center
02:31AM 56.8500 -133.6500 321° Northwest 500 575 38,000  Level Vancouver Center
02:32AM 56.9833 -133.7833 331° Northwest 500 575 38,000  Level Vancouver Center
02:33AM 57.0833 -133.9333 321° Northwest 500 575 38,000  Level Vancouver Center
02:34AM 57.2167 -134.0667 332° Northwest 500 575 38,000  Level Vancouver Center
02:35AM 57.3167 -134.2167 321° Northwest 500 575 38,000  Level Vancouver Center
02:36AM 57.4333 -134.3667 325° Northwest 500 575 38,000  Level Vancouver Center
02:37AM 57.5500 -134.5000 328° Northwest 500 575 38,000  Level Vancouver Center
02:38AM 57.6667 -134.6500 326° Northwest 500 575 38,000  Level Vancouver Center
02:39AM 57.7667 -134.7833 325° Northwest 500 575 38,000  Level Vancouver Center
02:40AM 57.9000 -134.9500 326° Northwest 500 575 38,000  Level Vancouver Center
02:41AM 58.0000 -135.1000 322° Northwest 500 575 38,000  Level Vancouver Center
02:42AM 58.1167 -135.2333 329° Northwest 500 575 38,000 240 Level Vancouver Center
02:44AM 58.2667 -135.3667 335° Northwest 510 587 38,700 360 Climbing Anchorage Center
02:45AM 58.4000 -135.4833 335° Northwest 500 575 39,000 120 Climbing Anchorage Center
02:46AM 58.5167 -135.6167 329° Northwest 500 575 39,000  Level Anchorage Center
02:47AM 58.6333 -135.7500 329° Northwest 500 575 39,000  Level Anchorage Center
02:48AM 58.7500 -135.8833 329° Northwest 500 575 39,000  Level Anchorage Center
02:49AM 58.8833 -136.0167 333° Northwest 490 564 39,000  Level Anchorage Center
02:50AM 59.0000 -136.1500 330° Northwest 500 575 39,000  Level Anchorage Center
02:51AM 59.1167 -136.2833 330° Northwest 490 564 39,000 -300 Level Anchorage Center
02:52AM 59.2333 -136.4167 330° Northwest 490 564 38,500 -540 Descending Anchorage Center
02:53AM 59.3667 -136.5500 333° Northwest 490 564 38,000 -300 Descending Anchorage Center
02:54AM 59.4833 -136.7000 327° Northwest 490 564 38,000  Level Anchorage Center
02:55AM 59.6000 -136.8333 330° Northwest 490 564 38,000  Level Anchorage Center
02:56AM 59.7167 -136.9667 330° Northwest 490 564 38,000  Level Anchorage Center
02:57AM 59.8333 -137.1000 330° Northwest 490 564 38,000  Level Anchorage Center
02:58AM 59.9500 -137.2500 327° Northwest 490 564 38,000  Level Anchorage Center
02:59AM 60.0667 -137.3833 330° Northwest 490 564 38,000  Level Anchorage Center
03:00AM 60.1833 -137.5333 327° Northwest 490 564 38,000  Level Anchorage Center
03:01AM 60.3000 -137.6667 330° Northwest 490 564 38,000  Level Anchorage Center
03:02AM 60.4167 -137.8167 328° Northwest 490 564 38,000  Level Anchorage Center
03:03AM 60.5333 -137.9500 331° Northwest 490 564 38,000  Level Anchorage Center
03:04AM 60.6500 -138.1000 328° Northwest 490 564 38,000  Level Anchorage Center
03:05AM 60.7667 -138.2500 328° Northwest 490 564 38,000  Level Anchorage Center
03:06AM 60.8833 -138.3833 331° Northwest 490 564 38,000  Level Anchorage Center
03:07AM 61.0000 -138.5333 328° Northwest 490 564 38,000  Level Anchorage Center
03:08AM 61.1000 -138.6833 324° Northwest 480 552 38,000  Level Anchorage Center
03:09AM 61.2167 -138.8333 328° Northwest 480 552 38,000  Level Anchorage Center
03:10AM 61.3333 -138.9667 331° Northwest 470 541 38,000  Level Anchorage Center
03:11AM 61.4333 -139.1333 321° Northwest 460 529 38,000  Level Anchorage Center
03:12AM 61.5333 -139.3167 319° Northwest 470 541 38,000  Level Anchorage Center
03:13AM 61.6333 -139.5000 319° Northwest 480 552 38,000  Level Anchorage Center
03:15AM 61.8017 -139.7942 321° Northwest  Level FlightAware Approximate
03:22AM 62.4816 -141.0282 319° Northwest  Level FlightAware Approximate
03:22AM 62.5833 -141.0500 308° West 610 702 38,000  Level Anchorage Center
03:23AM 62.5774 -141.2100 319° Northwest  Level FlightAware Approximate
03:23AM 62.6500 -141.2833 302° West 460 529 38,000  Level Anchorage Center
03:24AM 62.6730 -141.3930 319° Northwest  Level FlightAware Approximate
03:24AM 62.7500 -141.4833 318° Northwest 460 529 38,000  Level Anchorage Center
03:25AM 62.7683 -141.5772 319° Northwest  Level FlightAware Approximate
03:25AM 62.8167 -141.7000 304° West 450 518 38,000  Level Anchorage Center
03:26AM 62.8634 -141.7626 318° Northwest  Level FlightAware Approximate
03:26AM 62.9167 -141.8833 320° Northwest 460 529 38,000  Level Anchorage Center
03:27AM 62.9539 -141.9582 308° West  Level FlightAware Approximate
03:27AM 63.0000 -142.1000 310° West 450 518 38,000  Level Anchorage Center
03:28AM 63.0833 -142.3167 310° West 450 518 38,000  Level Anchorage Center
03:29AM 63.1500 -142.5500 302° West 460 529 38,000  Level Anchorage Center
03:30AM 63.2167 -142.7833 302° West 460 529 38,000  Level Anchorage Center
03:31AM 63.3000 -143.0167 309° West 460 529 38,000  Level Anchorage Center
03:33AM 63.4500 -143.4833 306° West 460 529 38,000  Level Anchorage Center
03:34AM 63.5167 -143.7167 303° West 450 518 38,000  Level Anchorage Center
03:35AM 63.6000 -143.9500 309° West 460 529 38,000  Level Anchorage Center
03:36AM 63.6667 -144.1833 303° West 460 529 38,000 -300 Level Anchorage Center
03:37AM 63.7333 -144.4167 303° West 450 518 37,400 -1,620 Descending Anchorage Center
03:38AM 63.8000 -144.6500 303° West 450 518 34,800 -2,700 Descending Anchorage Center
03:39AM 63.8667 -144.8333 310° West 450 518 32,000 -2,760 Descending Anchorage Center
03:40AM 63.9500 -145.1167 304° West 440 506 29,300 -2,460 Descending Anchorage Center
03:41AM 64.0167 -145.3500 303° West 420 483 27,100 -2,280 Descending Anchorage Center
03:42AM 64.0667 -145.5667 298° West 410 472 24,800 -2,220 Descending Anchorage Center
03:43AM 64.1333 -145.7667 307° West 390 449 22,700 -2,100 Descending Anchorage Center
03:44AM 64.2000 -145.9833 305° West 370 426 20,600 -2,100 Descending Anchorage Center
03:46AM 64.3492 -146.3756 303° West  Level FlightAware Approximate
03:53AM 64.6832 -147.9101 10° North  Level FlightAware Approximate
03:54AM 64.8000 -147.8500 16° North  Level FlightAware Approximate
03:55AM 64.8151 -147.8564 16° North  Level Estimated
03:56AM 64.8151 -147.8564 16° North  Level Estimated
03:57AM 64.8151 -147.8564 16° North  Level Estimated
03:58AM 64.8151 -147.8564 16° North  Level Estimated
03:59AM 64.8151 -147.8564 16° North  Level Estimated
04:00AM 64.8151 -147.8564 16° North  Level Estimated
04:01AM 64.8151 -147.8564 16° North  Level Estimated
04:02AM 64.8151 -147.8564 16° North  Level Estimated
04:03AM 64.8151 -147.8564 16° North  Level Estimated
04:04AM 64.8151 -147.8564 16° North  Level Estimated
04:05AM 64.8151 -147.8564 16° North  Level Estimated
04:06AM 64.8151 -147.8564 16° North  Level Estimated
04:07AM 64.8151 -147.8564 16° North  Level Estimated
04:08AM 64.8151 -147.8564 16° North  Level Estimated